createdAt,value
2019-03-02T00:00:43.262Z,20.57
2019-03-02T00:06:38.245Z,21.6
2019-03-02T00:12:33.267Z,21.61
2019-03-02T00:18:29.055Z,21.57
2019-03-02T00:24:23.236Z,22.74
2019-03-02T00:30:21.065Z,21.93
2019-03-02T00:36:15.912Z,20.48
2019-03-02T00:42:08.249Z,20.92
2019-03-02T00:48:03.259Z,22.26
2019-03-02T00:53:58.290Z,22.7
2019-03-02T00:59:53.283Z,22.05
2019-03-02T01:05:48.309Z,21.95
2019-03-02T01:11:43.280Z,20.78
2019-03-02T01:17:38.287Z,24.41
2019-03-02T01:23:33.273Z,23.58
2019-03-02T01:29:28.276Z,22.69
2019-03-02T01:35:23.289Z,20.83
2019-03-02T01:41:19.077Z,20.29
2019-03-02T01:47:15.728Z,20.21
2019-03-02T01:53:09.858Z,21.75
2019-03-02T01:59:03.896Z,22.79
2019-03-02T02:04:58.398Z,22.97
2019-03-02T02:10:53.291Z,21.73
2019-03-02T02:16:48.311Z,22.84
2019-03-02T02:22:43.311Z,23.19
2019-03-02T02:28:38.312Z,22.58
2019-03-02T02:34:33.319Z,21.68
2019-03-02T02:40:28.311Z,22.93
2019-03-02T02:46:27.278Z,23.88
2019-03-02T02:52:23.151Z,23.81
2019-03-02T02:58:17.430Z,23.66
2019-03-02T03:04:08.348Z,22.27
2019-03-02T03:10:03.409Z,22.56
2019-03-02T03:15:58.348Z,22.9
2019-03-02T03:21:53.358Z,25.34
2019-03-02T03:27:51.715Z,25.27
2019-03-02T03:33:46.939Z,23.52
2019-03-02T03:39:41.711Z,24.05
2019-03-02T03:45:42.037Z,23.73
2019-03-02T03:51:30.398Z,22.14
2019-03-02T03:57:23.341Z,22.76
2019-03-02T04:03:18.370Z,23.69
2019-03-02T04:09:13.386Z,24.47
2019-03-02T04:15:08.368Z,24.03
2019-03-02T04:21:03.455Z,23.8
2019-03-02T04:26:58.382Z,24.33
2019-03-02T04:32:53.373Z,23.59
2019-03-02T04:38:48.402Z,22.2
2019-03-02T04:44:43.412Z,23.86
2019-03-02T04:50:38.388Z,24.58
2019-03-02T04:56:33.445Z,23.66
2019-03-02T05:02:28.397Z,24.48
2019-03-02T05:08:23.396Z,23.56
2019-03-02T05:14:18.392Z,22.48
2019-03-02T05:20:13.393Z,24.57
2019-03-02T05:26:08.404Z,25.03
2019-03-02T05:32:03.446Z,21.41
2019-03-02T05:37:58.458Z,19.28
2019-03-02T05:43:53.414Z,20.4
2019-03-02T05:49:50.689Z,28.54
2019-03-02T05:55:43.428Z,28.43
2019-03-02T06:01:40.287Z,24.29
2019-03-02T06:07:33.492Z,24.69
2019-03-02T06:13:29.559Z,23.26
2019-03-02T06:19:24.197Z,23.56
2019-03-02T06:25:20.985Z,24.8
2019-03-02T06:31:15.710Z,21.99
2019-03-02T06:37:08.476Z,21.55
2019-03-02T06:43:03.535Z,22.52
2019-03-02T06:48:58.507Z,22.24
2019-03-02T06:54:53.452Z,24.25
2019-03-02T07:00:48.829Z,25.48
2019-03-02T07:06:46.644Z,24.55
2019-03-02T07:12:41.718Z,25.43
2019-03-02T07:18:33.483Z,25.82
2019-03-02T07:24:29.376Z,26.26
2019-03-02T07:30:23.497Z,25.41
2019-03-02T07:36:18.473Z,24.97
2019-03-02T07:42:13.542Z,25.74
2019-03-02T07:48:08.510Z,24.63
2019-03-02T07:54:05.909Z,26.21
2019-03-02T08:00:02.053Z,25.17
2019-03-02T08:05:53.500Z,25.5
2019-03-02T08:11:48.946Z,26.4
2019-03-02T08:17:45.539Z,29.09
2019-03-02T08:23:38.539Z,32.72
2019-03-02T08:29:33.497Z,34.96
2019-03-02T08:35:28.531Z,36.39
2019-03-02T08:41:24.403Z,32.23
2019-03-02T08:47:18.502Z,31.9
2019-03-02T08:53:13.503Z,31
2019-03-02T08:59:08.503Z,29.62
2019-03-02T09:05:03.540Z,31
2019-03-02T09:10:58.519Z,32.92
2019-03-02T09:16:53.540Z,36.59
2019-03-02T09:22:48.519Z,34.86
2019-03-02T09:28:43.575Z,34.65
2019-03-02T09:34:40.381Z,38.77
2019-03-02T09:40:33.540Z,36.99
2019-03-02T09:46:28.562Z,38.68
2019-03-02T09:52:23.551Z,37.44
2019-03-02T09:58:20.157Z,27.3
2019-03-02T10:04:13.561Z,37.63
2019-03-02T10:10:08.567Z,38.44
2019-03-02T10:16:04.333Z,38.6
2019-03-02T10:21:58.586Z,43.05
2019-03-02T10:27:56.885Z,41.36
2019-03-02T10:33:48.577Z,43.23
2019-03-02T10:39:43.580Z,40.57
2019-03-02T10:45:38.572Z,42.24
2019-03-02T10:51:33.874Z,42.27
2019-03-02T10:57:28.604Z,43.68
2019-03-02T11:03:23.610Z,42.03
2019-03-02T11:09:22.318Z,45.03
2019-03-02T11:15:13.593Z,46.32
2019-03-02T11:21:08.615Z,41.43
2019-03-02T11:27:03.615Z,38
2019-03-02T11:32:58.589Z,34.27
2019-03-02T11:38:53.601Z,42.44
2019-03-02T11:44:48.585Z,43.9
2019-03-02T11:50:46.778Z,47.57
2019-03-02T11:56:38.967Z,43.62
2019-03-02T12:02:33.658Z,41.71
2019-03-02T12:08:28.618Z,40.88
2019-03-02T12:14:23.646Z,42
2019-03-02T12:20:18.625Z,41.54
2019-03-02T12:26:13.616Z,35.62
2019-03-02T12:32:08.829Z,34.33
2019-03-02T12:38:07.081Z,30.28
2019-03-02T12:43:58.639Z,33.05
2019-03-02T12:49:53.644Z,33.35
2019-03-02T12:55:48.672Z,33.02
2019-03-02T13:01:43.657Z,32.35
2019-03-02T13:07:38.632Z,31.92
2019-03-02T13:13:33.666Z,29.98
2019-03-02T13:19:28.659Z,30.55
2019-03-02T13:25:23.673Z,31.07
2019-03-02T13:31:18.639Z,32.81
2019-03-02T13:43:08.678Z,32.29
2019-03-02T13:43:08.710Z,33.59
2019-03-02T13:54:59.361Z,32.1
2019-03-02T13:54:59.361Z,31.31
2019-03-02T14:00:53.685Z,30.16
2019-03-02T14:06:50.862Z,30.95
2019-03-02T14:12:43.683Z,29.56
2019-03-02T14:18:38.707Z,27.4
2019-03-02T14:24:33.707Z,28.58
2019-03-02T14:30:28.713Z,27.84
2019-03-02T14:36:23.700Z,28.2
2019-03-02T14:42:18.692Z,22.24
2019-03-02T14:48:14.767Z,30.59
2019-03-02T14:54:09.117Z,14.92
2019-03-02T15:00:03.751Z,23.57
2019-03-02T15:06:08.509Z,24.32
2019-03-02T15:11:53.749Z,28.95
2019-03-02T15:17:49.129Z,29.87
2019-03-02T15:23:43.701Z,30.77
2019-03-02T15:29:38.713Z,22.17
2019-03-02T15:35:34.899Z,14.71
2019-03-02T15:41:28.750Z,28.05
2019-03-02T15:47:23.738Z,29.41
2019-03-02T15:53:20.236Z,29.5
2019-03-02T15:59:15.413Z,21.86
2019-03-02T16:05:11.147Z,17.53
2019-03-02T16:11:03.803Z,17.06
2019-03-02T16:16:59.829Z,19.06
2019-03-02T16:22:53.756Z,18.15
2019-03-02T16:28:50.693Z,23.43
2019-03-02T16:34:43.947Z,24.95
2019-03-02T16:40:38.745Z,25.65
2019-03-02T16:46:34.950Z,25.75
2019-03-02T16:52:28.777Z,25.32
2019-03-02T16:58:23.804Z,25.87
2019-03-02T17:04:19.763Z,26.59
2019-03-02T17:10:13.760Z,28.48
2019-03-02T17:16:08.778Z,36.61
2019-03-02T17:22:03.774Z,30.98
2019-03-02T17:27:59.676Z,28.17
2019-03-02T17:33:53.845Z,34.57
2019-03-02T17:39:48.806Z,37.68
2019-03-02T17:45:43.807Z,30.62
2019-03-02T17:51:38.862Z,31.3
2019-03-02T17:57:33.829Z,27.67
2019-03-02T18:03:28.809Z,31.91
2019-03-02T18:09:24.187Z,28.2
2019-03-02T18:15:21.951Z,27.26
2019-03-02T18:21:13.815Z,30.97
2019-03-02T18:27:08.828Z,39.93
2019-03-02T18:33:03.851Z,36.62
2019-03-02T18:39:00.912Z,31.62
2019-03-02T18:44:54.196Z,31.29
2019-03-02T18:50:48.823Z,34.77
2019-03-02T18:56:43.837Z,28.95
2019-03-02T19:02:38.858Z,27.91
2019-03-02T19:08:33.845Z,27.83
2019-03-02T19:14:30.300Z,29.43
2019-03-02T19:20:23.876Z,27.62
2019-03-02T19:26:18.852Z,24.94
2019-03-02T19:32:13.880Z,33.45
2019-03-02T19:38:08.868Z,26.48
2019-03-02T19:44:03.868Z,19.98
2019-03-02T19:49:58.995Z,21.09
2019-03-02T19:55:53.893Z,22.92
2019-03-02T20:01:48.902Z,26
2019-03-02T20:07:43.888Z,24.54
2019-03-02T20:13:38.893Z,22.93
2019-03-02T20:19:33.888Z,28.13
2019-03-02T20:25:28.902Z,38.28
2019-03-02T20:31:23.906Z,32.69
2019-03-02T20:37:18.914Z,27.24
2019-03-02T20:43:13.908Z,21.66
2019-03-02T20:49:08.912Z,23.38
2019-03-02T20:55:03.916Z,21.56
2019-03-02T21:00:58.907Z,22.79
2019-03-02T21:06:53.901Z,27.1
2019-03-02T21:12:48.936Z,24.77
2019-03-02T21:18:43.915Z,25.22
2019-03-02T21:24:38.935Z,27.04
2019-03-02T21:30:33.924Z,26.2
2019-03-02T21:36:28.920Z,29.5
2019-03-02T21:42:23.930Z,33.76
2019-03-02T21:48:18.948Z,32.91
2019-03-02T21:54:13.913Z,27.69
2019-03-02T22:00:08.978Z,28.17
2019-03-02T22:06:03.945Z,27.7
2019-03-02T22:11:58.948Z,29.07
2019-03-02T22:17:53.945Z,27.63
2019-03-02T22:23:49.031Z,25.72
2019-03-02T22:29:43.973Z,28.61
2019-03-02T22:35:38.987Z,24.69
2019-03-02T22:41:34.006Z,23.27
2019-03-02T22:47:28.947Z,18.9
2019-03-02T22:53:23.983Z,16.25
2019-03-02T22:59:18.945Z,20.99
2019-03-02T23:05:13.974Z,15.96
2019-03-02T23:11:09.023Z,15.72
2019-03-02T23:17:03.984Z,16.59
2019-03-02T23:22:58.984Z,19.11
2019-03-02T23:28:53.981Z,18.95
2019-03-02T23:34:48.979Z,19.75
2019-03-02T23:40:43.994Z,17.42
2019-03-02T23:46:38.989Z,17.7
2019-03-02T23:52:33.998Z,19.05
2019-03-02T23:58:28.982Z,18.81
